Strona główna
METAR-TAF:

METAR-TAF

Lotnisko :

Hrabstwo Franklin, Vermont, Stany Zjednoczone

Szerokość geograficzna: 44-56-25N, Długość geograficzna: 073-05-51W, wysokość: 69 m

Aktualna obserwacja pogody

Raport powstał 11 minut temu, godzina 09:16 UTC
Cisza
Temperatura 13°C
Wilgotność 94%
Ciśnienie 1006 hPa
Widzialność: 8.0 km
Rozproszone chmury na wysokości 2100 ft
Przerywane chmury na wysokości 2700 ft
Przerywane chmury na wysokości 11000 ft
zamglenie

METAR: KFSO 040916Z AUTO 00000KT 5SM BR SCT021 BKN027 BKN110 13/12 A2971 RMK AO2 T01300122

czas: 05:27 (09:27 UTC)


TAF: brakujący

Obserwacja i prognoza pogody dla ponad 4000 lotnisk (raport METAR i TAF).

Dostępne stacje oznaczono żółtymi i czerwonymi punktami na mapie.

Najedź kursorem aby zobaczyć nazwę stacji.

Kliknij aby zobaczyć obserwacje i prognozy pogody.

Aby zmienić mapę: kliknij na zielony przycisk z czarnym krzyżykiem, aby powiększyć; na zielony przycisk z myślnikiem, aby pomniejszyć; na zielone strzałki, aby przejść do map sąsiednich.


METAR-TAF: